sensor_id;sensor_type;location;lat;lon;timestamp;P1;durP1;ratioP1;P2;durP2;ratioP2
59416;SDS011;45222;52.458;20.914;2022-07-10T00:00:40;7.90;;;4.00;;
59416;SDS011;45222;52.458;20.914;2022-07-10T00:03:42;7.40;;;4.20;;
59416;SDS011;45222;52.458;20.914;2022-07-10T00:06:45;7.60;;;4.20;;
59416;SDS011;45222;52.458;20.914;2022-07-10T00:09:48;6.20;;;4.00;;
59416;SDS011;45222;52.458;20.914;2022-07-10T00:12:50;7.10;;;4.20;;
59416;SDS011;45222;52.458;20.914;2022-07-10T00:15:52;7.20;;;4.10;;
59416;SDS011;45222;52.458;20.914;2022-07-10T00:18:56;9.00;;;4.00;;
59416;SDS011;45222;52.458;20.914;2022-07-10T00:22:04;5.30;;;3.20;;
59416;SDS011;45222;52.458;20.914;2022-07-10T00:25:07;7.30;;;3.30;;
59416;SDS011;45222;52.458;20.914;2022-07-10T00:28:09;7.10;;;4.20;;
59416;SDS011;45222;52.458;20.914;2022-07-10T00:31:11;6.90;;;3.60;;
59416;SDS011;45222;52.458;20.914;2022-07-10T00:34:13;7.80;;;4.10;;
59416;SDS011;45222;52.458;20.914;2022-07-10T00:37:14;8.40;;;4.00;;
59416;SDS011;45222;52.458;20.914;2022-07-10T00:40:16;7.50;;;4.00;;
59416;SDS011;45222;52.458;20.914;2022-07-10T00:43:18;12.00;;;3.70;;
59416;SDS011;45222;52.458;20.914;2022-07-10T00:46:20;7.50;;;3.50;;
59416;SDS011;45222;52.458;20.914;2022-07-10T00:49:22;9.80;;;3.50;;
59416;SDS011;45222;52.458;20.914;2022-07-10T00:52:23;7.20;;;4.10;;
59416;SDS011;45222;52.458;20.914;2022-07-10T00:55:25;6.90;;;3.60;;
59416;SDS011;45222;52.458;20.914;2022-07-10T00:58:27;6.80;;;4.00;;
59416;SDS011;45222;52.458;20.914;2022-07-10T01:01:29;8.60;;;4.00;;
59416;SDS011;45222;52.458;20.914;2022-07-10T01:04:31;6.60;;;3.40;;
59416;SDS011;45222;52.458;20.914;2022-07-10T01:07:33;6.60;;;3.30;;
59416;SDS011;45222;52.458;20.914;2022-07-10T01:10:35;7.50;;;3.20;;
59416;SDS011;45222;52.458;20.914;2022-07-10T01:13:38;6.70;;;3.00;;
59416;SDS011;45222;52.458;20.914;2022-07-10T01:16:40;6.10;;;2.90;;
59416;SDS011;45222;52.458;20.914;2022-07-10T01:19:42;7.20;;;3.70;;
59416;SDS011;45222;52.458;20.914;2022-07-10T01:22:44;6.60;;;3.80;;
59416;SDS011;45222;52.458;20.914;2022-07-10T01:25:46;6.40;;;3.20;;
59416;SDS011;45222;52.458;20.914;2022-07-10T01:28:49;6.40;;;3.10;;
59416;SDS011;45222;52.458;20.914;2022-07-10T01:31:51;5.20;;;2.70;;
59416;SDS011;45222;52.458;20.914;2022-07-10T01:34:53;6.60;;;2.70;;
59416;SDS011;45222;52.458;20.914;2022-07-10T01:37:54;7.40;;;2.70;;
59416;SDS011;45222;52.458;20.914;2022-07-10T01:40:56;6.20;;;2.60;;
59416;SDS011;45222;52.458;20.914;2022-07-10T01:43:58;6.20;;;3.00;;
59416;SDS011;45222;52.458;20.914;2022-07-10T01:47:00;7.10;;;3.00;;
59416;SDS011;45222;52.458;20.914;2022-07-10T01:50:02;6.40;;;2.70;;
59416;SDS011;45222;52.458;20.914;2022-07-10T01:53:04;7.30;;;2.80;;
59416;SDS011;45222;52.458;20.914;2022-07-10T01:56:08;6.30;;;2.80;;
59416;SDS011;45222;52.458;20.914;2022-07-10T01:59:10;5.70;;;3.00;;
59416;SDS011;45222;52.458;20.914;2022-07-10T02:02:12;6.70;;;3.40;;
59416;SDS011;45222;52.458;20.914;2022-07-10T02:05:20;7.20;;;2.90;;
59416;SDS011;45222;52.458;20.914;2022-07-10T02:08:24;6.00;;;2.80;;
59416;SDS011;45222;52.458;20.914;2022-07-10T02:11:26;7.40;;;3.00;;
59416;SDS011;45222;52.458;20.914;2022-07-10T02:14:28;6.10;;;2.60;;
59416;SDS011;45222;52.458;20.914;2022-07-10T02:17:29;4.40;;;2.50;;
59416;SDS011;45222;52.458;20.914;2022-07-10T02:20:32;4.80;;;2.70;;
59416;SDS011;45222;52.458;20.914;2022-07-10T02:23:35;8.70;;;3.10;;
59416;SDS011;45222;52.458;20.914;2022-07-10T02:26:37;7.70;;;3.10;;
59416;SDS011;45222;52.458;20.914;2022-07-10T02:29:39;6.40;;;3.30;;
59416;SDS011;45222;52.458;20.914;2022-07-10T02:32:41;7.70;;;3.60;;
59416;SDS011;45222;52.458;20.914;2022-07-10T02:35:43;7.30;;;3.00;;
59416;SDS011;45222;52.458;20.914;2022-07-10T02:38:45;5.20;;;2.80;;
59416;SDS011;45222;52.458;20.914;2022-07-10T02:41:47;5.30;;;2.50;;
59416;SDS011;45222;52.458;20.914;2022-07-10T02:44:49;4.70;;;2.60;;
59416;SDS011;45222;52.458;20.914;2022-07-10T02:47:50;4.50;;;2.40;;
59416;SDS011;45222;52.458;20.914;2022-07-10T02:50:54;6.90;;;2.90;;
59416;SDS011;45222;52.458;20.914;2022-07-10T02:54:00;6.10;;;2.60;;
59416;SDS011;45222;52.458;20.914;2022-07-10T02:57:05;5.20;;;2.80;;
59416;SDS011;45222;52.458;20.914;2022-07-10T03:00:08;5.10;;;2.70;;
59416;SDS011;45222;52.458;20.914;2022-07-10T03:03:11;6.80;;;2.60;;
59416;SDS011;45222;52.458;20.914;2022-07-10T03:06:13;6.30;;;2.40;;
59416;SDS011;45222;52.458;20.914;2022-07-10T03:09:15;8.20;;;2.90;;
59416;SDS011;45222;52.458;20.914;2022-07-10T03:12:17;5.60;;;2.70;;
59416;SDS011;45222;52.458;20.914;2022-07-10T03:15:18;5.90;;;2.60;;
59416;SDS011;45222;52.458;20.914;2022-07-10T03:18:20;8.50;;;2.70;;
59416;SDS011;45222;52.458;20.914;2022-07-10T03:21:22;6.30;;;2.90;;
59416;SDS011;45222;52.458;20.914;2022-07-10T03:24:24;5.40;;;2.90;;
59416;SDS011;45222;52.458;20.914;2022-07-10T03:27:28;6.70;;;2.90;;
59416;SDS011;45222;52.458;20.914;2022-07-10T03:30:33;8.20;;;2.90;;
59416;SDS011;45222;52.458;20.914;2022-07-10T03:33:35;5.00;;;2.60;;
59416;SDS011;45222;52.458;20.914;2022-07-10T03:36:37;6.20;;;3.00;;
59416;SDS011;45222;52.458;20.914;2022-07-10T03:39:39;6.00;;;2.80;;
59416;SDS011;45222;52.458;20.914;2022-07-10T03:42:40;6.90;;;2.60;;
59416;SDS011;45222;52.458;20.914;2022-07-10T03:45:42;6.00;;;2.90;;
59416;SDS011;45222;52.458;20.914;2022-07-10T03:48:44;6.10;;;2.50;;
59416;SDS011;45222;52.458;20.914;2022-07-10T03:51:46;7.20;;;2.50;;
59416;SDS011;45222;52.458;20.914;2022-07-10T03:54:47;6.20;;;2.80;;
59416;SDS011;45222;52.458;20.914;2022-07-10T03:57:49;8.30;;;2.60;;
59416;SDS011;45222;52.458;20.914;2022-07-10T04:00:58;7.10;;;2.80;;
59416;SDS011;45222;52.458;20.914;2022-07-10T04:04:00;7.30;;;2.80;;
59416;SDS011;45222;52.458;20.914;2022-07-10T04:07:02;6.10;;;2.70;;
59416;SDS011;45222;52.458;20.914;2022-07-10T04:10:06;7.80;;;4.00;;
59416;SDS011;45222;52.458;20.914;2022-07-10T04:13:08;8.40;;;3.60;;
59416;SDS011;45222;52.458;20.914;2022-07-10T04:16:10;6.50;;;2.80;;
59416;SDS011;45222;52.458;20.914;2022-07-10T04:19:14;9.70;;;4.20;;
59416;SDS011;45222;52.458;20.914;2022-07-10T04:22:16;12.40;;;4.80;;
59416;SDS011;45222;52.458;20.914;2022-07-10T04:25:18;7.10;;;2.70;;
59416;SDS011;45222;52.458;20.914;2022-07-10T04:28:20;8.30;;;2.10;;
59416;SDS011;45222;52.458;20.914;2022-07-10T04:31:23;8.90;;;2.00;;
59416;SDS011;45222;52.458;20.914;2022-07-10T04:34:30;6.50;;;2.00;;
59416;SDS011;45222;52.458;20.914;2022-07-10T04:37:31;4.50;;;1.80;;
59416;SDS011;45222;52.458;20.914;2022-07-10T04:40:35;6.50;;;2.20;;
59416;SDS011;45222;52.458;20.914;2022-07-10T04:43:37;6.50;;;2.10;;
59416;SDS011;45222;52.458;20.914;2022-07-10T04:46:39;6.20;;;1.90;;
59416;SDS011;45222;52.458;20.914;2022-07-10T04:49:41;5.10;;;1.80;;
59416;SDS011;45222;52.458;20.914;2022-07-10T04:52:43;6.40;;;2.00;;
59416;SDS011;45222;52.458;20.914;2022-07-10T04:55:45;6.10;;;1.90;;
59416;SDS011;45222;52.458;20.914;2022-07-10T04:58:47;7.60;;;2.10;;
59416;SDS011;45222;52.458;20.914;2022-07-10T05:01:49;6.30;;;2.10;;
59416;SDS011;45222;52.458;20.914;2022-07-10T05:04:51;6.70;;;2.20;;
59416;SDS011;45222;52.458;20.914;2022-07-10T05:07:52;8.10;;;2.10;;
59416;SDS011;45222;52.458;20.914;2022-07-10T05:10:55;5.70;;;1.80;;
59416;SDS011;45222;52.458;20.914;2022-07-10T05:13:57;4.90;;;1.60;;
59416;SDS011;45222;52.458;20.914;2022-07-10T05:16:59;11.20;;;2.90;;
59416;SDS011;45222;52.458;20.914;2022-07-10T05:20:00;9.50;;;2.60;;
59416;SDS011;45222;52.458;20.914;2022-07-10T05:23:02;5.40;;;1.90;;
59416;SDS011;45222;52.458;20.914;2022-07-10T05:26:04;4.90;;;1.90;;
59416;SDS011;45222;52.458;20.914;2022-07-10T05:29:06;4.20;;;1.60;;
59416;SDS011;45222;52.458;20.914;2022-07-10T05:32:08;5.80;;;1.80;;
59416;SDS011;45222;52.458;20.914;2022-07-10T05:35:10;5.30;;;1.80;;
59416;SDS011;45222;52.458;20.914;2022-07-10T05:38:12;5.50;;;1.70;;
59416;SDS011;45222;52.458;20.914;2022-07-10T05:41:15;6.20;;;1.80;;
59416;SDS011;45222;52.458;20.914;2022-07-10T05:44:17;7.10;;;1.90;;
59416;SDS011;45222;52.458;20.914;2022-07-10T05:47:20;4.90;;;1.80;;
59416;SDS011;45222;52.458;20.914;2022-07-10T05:50:22;6.10;;;1.70;;
59416;SDS011;45222;52.458;20.914;2022-07-10T05:53:24;5.50;;;1.80;;
59416;SDS011;45222;52.458;20.914;2022-07-10T05:56:31;5.40;;;1.80;;
59416;SDS011;45222;52.458;20.914;2022-07-10T05:59:38;6.20;;;1.90;;
59416;SDS011;45222;52.458;20.914;2022-07-10T06:02:44;6.10;;;1.90;;
59416;SDS011;45222;52.458;20.914;2022-07-10T06:05:45;4.80;;;2.00;;
59416;SDS011;45222;52.458;20.914;2022-07-10T06:08:48;5.60;;;1.60;;
59416;SDS011;45222;52.458;20.914;2022-07-10T06:11:50;7.40;;;1.50;;
59416;SDS011;45222;52.458;20.914;2022-07-10T06:14:52;5.20;;;1.60;;
59416;SDS011;45222;52.458;20.914;2022-07-10T06:17:56;6.60;;;1.50;;
59416;SDS011;45222;52.458;20.914;2022-07-10T06:20:58;5.10;;;1.40;;
59416;SDS011;45222;52.458;20.914;2022-07-10T06:24:00;5.40;;;1.50;;
59416;SDS011;45222;52.458;20.914;2022-07-10T06:27:02;6.00;;;1.60;;
59416;SDS011;45222;52.458;20.914;2022-07-10T06:30:04;5.10;;;1.30;;
59416;SDS011;45222;52.458;20.914;2022-07-10T06:33:07;7.10;;;1.80;;
59416;SDS011;45222;52.458;20.914;2022-07-10T06:36:08;4.30;;;1.50;;
59416;SDS011;45222;52.458;20.914;2022-07-10T06:39:10;4.20;;;1.50;;
59416;SDS011;45222;52.458;20.914;2022-07-10T06:42:12;23.60;;;2.80;;
59416;SDS011;45222;52.458;20.914;2022-07-10T06:45:14;6.20;;;1.50;;
59416;SDS011;45222;52.458;20.914;2022-07-10T06:48:16;5.10;;;1.50;;
59416;SDS011;45222;52.458;20.914;2022-07-10T06:51:18;5.90;;;1.50;;
59416;SDS011;45222;52.458;20.914;2022-07-10T06:54:20;5.00;;;1.40;;
59416;SDS011;45222;52.458;20.914;2022-07-10T06:57:25;6.60;;;1.50;;
59416;SDS011;45222;52.458;20.914;2022-07-10T07:00:29;3.80;;;1.30;;
59416;SDS011;45222;52.458;20.914;2022-07-10T07:03:31;4.40;;;1.20;;
59416;SDS011;45222;52.458;20.914;2022-07-10T07:06:32;4.50;;;1.20;;
59416;SDS011;45222;52.458;20.914;2022-07-10T07:09:34;4.40;;;1.20;;
59416;SDS011;45222;52.458;20.914;2022-07-10T07:12:36;4.70;;;1.30;;
59416;SDS011;45222;52.458;20.914;2022-07-10T07:15:38;3.90;;;1.40;;
59416;SDS011;45222;52.458;20.914;2022-07-10T07:18:43;5.00;;;1.20;;
59416;SDS011;45222;52.458;20.914;2022-07-10T07:21:50;3.60;;;1.20;;
59416;SDS011;45222;52.458;20.914;2022-07-10T07:25:11;5.40;;;1.20;;
59416;SDS011;45222;52.458;20.914;2022-07-10T07:28:13;8.10;;;1.10;;
59416;SDS011;45222;52.458;20.914;2022-07-10T07:31:16;4.60;;;1.30;;
59416;SDS011;45222;52.458;20.914;2022-07-10T07:34:19;5.30;;;1.50;;
59416;SDS011;45222;52.458;20.914;2022-07-10T07:37:21;4.00;;;1.00;;
59416;SDS011;45222;52.458;20.914;2022-07-10T07:40:23;5.70;;;1.40;;
59416;SDS011;45222;52.458;20.914;2022-07-10T07:43:25;4.60;;;1.20;;
59416;SDS011;45222;52.458;20.914;2022-07-10T07:46:27;5.30;;;1.20;;
59416;SDS011;45222;52.458;20.914;2022-07-10T07:49:28;6.00;;;1.10;;
59416;SDS011;45222;52.458;20.914;2022-07-10T07:52:30;5.30;;;1.20;;
59416;SDS011;45222;52.458;20.914;2022-07-10T07:55:33;5.60;;;1.30;;
59416;SDS011;45222;52.458;20.914;2022-07-10T07:58:35;3.50;;;1.10;;
59416;SDS011;45222;52.458;20.914;2022-07-10T08:01:37;4.80;;;1.30;;
59416;SDS011;45222;52.458;20.914;2022-07-10T08:04:38;6.80;;;1.20;;
59416;SDS011;45222;52.458;20.914;2022-07-10T08:07:41;4.60;;;1.30;;
59416;SDS011;45222;52.458;20.914;2022-07-10T08:10:43;8.80;;;1.40;;
59416;SDS011;45222;52.458;20.914;2022-07-10T08:13:45;3.50;;;1.10;;
59416;SDS011;45222;52.458;20.914;2022-07-10T08:16:47;5.00;;;1.60;;
59416;SDS011;45222;52.458;20.914;2022-07-10T08:19:49;5.90;;;1.70;;
59416;SDS011;45222;52.458;20.914;2022-07-10T08:22:51;8.20;;;1.40;;
59416;SDS011;45222;52.458;20.914;2022-07-10T08:25:54;5.90;;;1.30;;
59416;SDS011;45222;52.458;20.914;2022-07-10T08:28:56;3.20;;;1.10;;
59416;SDS011;45222;52.458;20.914;2022-07-10T08:31:57;3.70;;;1.10;;
59416;SDS011;45222;52.458;20.914;2022-07-10T08:34:59;2.70;;;1.00;;
59416;SDS011;45222;52.458;20.914;2022-07-10T08:38:01;4.20;;;0.90;;
59416;SDS011;45222;52.458;20.914;2022-07-10T08:41:03;3.80;;;0.80;;
59416;SDS011;45222;52.458;20.914;2022-07-10T08:44:07;2.90;;;1.00;;
59416;SDS011;45222;52.458;20.914;2022-07-10T08:47:09;2.90;;;0.80;;
59416;SDS011;45222;52.458;20.914;2022-07-10T08:50:16;3.00;;;0.90;;
59416;SDS011;45222;52.458;20.914;2022-07-10T08:53:22;3.80;;;0.90;;
59416;SDS011;45222;52.458;20.914;2022-07-10T08:56:25;2.30;;;0.80;;
59416;SDS011;45222;52.458;20.914;2022-07-10T08:59:27;3.40;;;0.80;;
59416;SDS011;45222;52.458;20.914;2022-07-10T09:02:29;3.40;;;0.70;;
59416;SDS011;45222;52.458;20.914;2022-07-10T09:05:34;1.70;;;0.70;;
59416;SDS011;45222;52.458;20.914;2022-07-10T09:08:44;2.60;;;0.80;;
59416;SDS011;45222;52.458;20.914;2022-07-10T09:11:58;3.60;;;0.70;;
59416;SDS011;45222;52.458;20.914;2022-07-10T09:15:08;2.20;;;0.80;;
59416;SDS011;45222;52.458;20.914;2022-07-10T09:18:18;2.70;;;0.90;;
59416;SDS011;45222;52.458;20.914;2022-07-10T09:21:21;4.40;;;0.80;;
59416;SDS011;45222;52.458;20.914;2022-07-10T09:24:23;2.50;;;0.70;;
59416;SDS011;45222;52.458;20.914;2022-07-10T09:27:25;3.00;;;0.70;;
59416;SDS011;45222;52.458;20.914;2022-07-10T09:30:34;5.20;;;1.00;;
59416;SDS011;45222;52.458;20.914;2022-07-10T09:33:36;6.20;;;1.20;;
59416;SDS011;45222;52.458;20.914;2022-07-10T09:36:38;3.70;;;1.00;;
59416;SDS011;45222;52.458;20.914;2022-07-10T09:39:44;4.40;;;1.00;;
59416;SDS011;45222;52.458;20.914;2022-07-10T09:42:52;7.50;;;1.20;;
59416;SDS011;45222;52.458;20.914;2022-07-10T09:45:55;4.80;;;0.90;;
59416;SDS011;45222;52.458;20.914;2022-07-10T09:49:07;5.60;;;0.80;;
59416;SDS011;45222;52.458;20.914;2022-07-10T09:52:09;2.00;;;0.90;;
59416;SDS011;45222;52.458;20.914;2022-07-10T09:55:11;4.30;;;1.00;;
59416;SDS011;45222;52.458;20.914;2022-07-10T09:58:13;4.10;;;1.10;;
59416;SDS011;45222;52.458;20.914;2022-07-10T10:01:17;3.10;;;1.10;;
59416;SDS011;45222;52.458;20.914;2022-07-10T10:04:26;3.80;;;1.10;;
59416;SDS011;45222;52.458;20.914;2022-07-10T10:07:35;4.10;;;1.10;;
59416;SDS011;45222;52.458;20.914;2022-07-10T10:10:42;4.70;;;1.30;;
59416;SDS011;45222;52.458;20.914;2022-07-10T10:13:45;4.10;;;1.20;;
59416;SDS011;45222;52.458;20.914;2022-07-10T10:16:47;3.60;;;1.10;;
59416;SDS011;45222;52.458;20.914;2022-07-10T10:19:49;5.30;;;1.50;;
59416;SDS011;45222;52.458;20.914;2022-07-10T10:23:12;5.00;;;1.30;;
59416;SDS011;45222;52.458;20.914;2022-07-10T10:26:14;3.80;;;1.00;;
59416;SDS011;45222;52.458;20.914;2022-07-10T10:29:16;2.60;;;0.80;;
59416;SDS011;45222;52.458;20.914;2022-07-10T10:32:18;2.20;;;0.80;;
59416;SDS011;45222;52.458;20.914;2022-07-10T10:41:53;1.70;;;0.80;;
59416;SDS011;45222;52.458;20.914;2022-07-10T10:48:12;4.50;;;1.00;;
59416;SDS011;45222;52.458;20.914;2022-07-10T10:51:14;5.00;;;0.90;;
59416;SDS011;45222;52.458;20.914;2022-07-10T10:54:16;3.10;;;1.10;;
59416;SDS011;45222;52.458;20.914;2022-07-10T10:57:18;3.50;;;1.10;;
59416;SDS011;45222;52.458;20.914;2022-07-10T11:00:30;3.80;;;1.00;;
59416;SDS011;45222;52.458;20.914;2022-07-10T11:06:40;5.80;;;1.30;;
59416;SDS011;45222;52.458;20.914;2022-07-10T11:09:42;4.90;;;1.20;;
59416;SDS011;45222;52.458;20.914;2022-07-10T11:12:59;4.70;;;1.20;;
59416;SDS011;45222;52.458;20.914;2022-07-10T11:16:02;5.40;;;1.60;;
59416;SDS011;45222;52.458;20.914;2022-07-10T11:19:13;9.00;;;1.40;;
59416;SDS011;45222;52.458;20.914;2022-07-10T11:22:25;4.10;;;1.30;;
59416;SDS011;45222;52.458;20.914;2022-07-10T11:25:35;4.20;;;1.30;;
59416;SDS011;45222;52.458;20.914;2022-07-10T11:28:46;4.90;;;1.40;;
59416;SDS011;45222;52.458;20.914;2022-07-10T11:31:53;4.30;;;1.10;;
59416;SDS011;45222;52.458;20.914;2022-07-10T11:34:55;4.30;;;1.40;;
59416;SDS011;45222;52.458;20.914;2022-07-10T11:37:57;5.40;;;1.30;;
59416;SDS011;45222;52.458;20.914;2022-07-10T11:40:58;4.50;;;1.20;;
59416;SDS011;45222;52.458;20.914;2022-07-10T11:44:01;3.40;;;1.10;;
59416;SDS011;45222;52.458;20.914;2022-07-10T11:47:04;17.90;;;1.70;;
59416;SDS011;45222;52.458;20.914;2022-07-10T11:50:07;18.90;;;1.80;;
59416;SDS011;45222;52.458;20.914;2022-07-10T11:53:09;3.70;;;1.10;;
59416;SDS011;45222;52.458;20.914;2022-07-10T11:56:11;3.20;;;1.00;;
59416;SDS011;45222;52.458;20.914;2022-07-10T11:59:22;3.50;;;1.10;;
59416;SDS011;45222;52.458;20.914;2022-07-10T12:02:25;3.00;;;1.10;;
59416;SDS011;45222;52.458;20.914;2022-07-10T12:05:31;5.90;;;1.20;;
59416;SDS011;45222;52.458;20.914;2022-07-10T12:08:43;3.30;;;1.00;;
59416;SDS011;45222;52.458;20.914;2022-07-10T12:11:58;4.70;;;1.30;;
59416;SDS011;45222;52.458;20.914;2022-07-10T12:15:00;3.80;;;1.30;;
59416;SDS011;45222;52.458;20.914;2022-07-10T12:18:04;3.40;;;1.20;;
59416;SDS011;45222;52.458;20.914;2022-07-10T12:21:07;3.60;;;1.20;;
59416;SDS011;45222;52.458;20.914;2022-07-10T12:24:13;4.30;;;1.20;;
59416;SDS011;45222;52.458;20.914;2022-07-10T12:30:44;3.70;;;1.30;;
59416;SDS011;45222;52.458;20.914;2022-07-10T12:33:51;3.50;;;1.20;;
59416;SDS011;45222;52.458;20.914;2022-07-10T12:36:54;3.00;;;1.20;;
59416;SDS011;45222;52.458;20.914;2022-07-10T12:39:56;5.10;;;1.70;;
59416;SDS011;45222;52.458;20.914;2022-07-10T12:43:01;3.60;;;1.30;;
59416;SDS011;45222;52.458;20.914;2022-07-10T12:46:13;4.60;;;1.60;;
59416;SDS011;45222;52.458;20.914;2022-07-10T12:49:16;4.10;;;1.40;;
59416;SDS011;45222;52.458;20.914;2022-07-10T12:52:21;4.40;;;1.40;;
59416;SDS011;45222;52.458;20.914;2022-07-10T12:55:23;12.60;;;1.90;;
59416;SDS011;45222;52.458;20.914;2022-07-10T12:58:27;3.40;;;1.10;;
59416;SDS011;45222;52.458;20.914;2022-07-10T13:01:38;4.50;;;1.20;;
59416;SDS011;45222;52.458;20.914;2022-07-10T13:04:40;2.30;;;1.00;;
59416;SDS011;45222;52.458;20.914;2022-07-10T13:07:52;4.10;;;1.00;;
59416;SDS011;45222;52.458;20.914;2022-07-10T13:10:55;3.80;;;0.90;;
59416;SDS011;45222;52.458;20.914;2022-07-10T13:13:57;2.30;;;0.90;;
59416;SDS011;45222;52.458;20.914;2022-07-10T13:16:59;3.70;;;1.00;;
59416;SDS011;45222;52.458;20.914;2022-07-10T13:20:01;4.40;;;1.10;;
59416;SDS011;45222;52.458;20.914;2022-07-10T13:23:03;1.80;;;1.00;;
59416;SDS011;45222;52.458;20.914;2022-07-10T13:26:05;2.40;;;0.90;;
59416;SDS011;45222;52.458;20.914;2022-07-10T13:29:10;2.80;;;1.00;;
59416;SDS011;45222;52.458;20.914;2022-07-10T13:32:12;17.40;;;1.60;;
59416;SDS011;45222;52.458;20.914;2022-07-10T13:35:14;3.80;;;1.10;;
59416;SDS011;45222;52.458;20.914;2022-07-10T13:38:16;6.00;;;1.10;;
59416;SDS011;45222;52.458;20.914;2022-07-10T13:41:19;4.10;;;1.20;;
59416;SDS011;45222;52.458;20.914;2022-07-10T13:44:21;5.10;;;1.20;;
59416;SDS011;45222;52.458;20.914;2022-07-10T13:47:23;4.70;;;1.20;;
59416;SDS011;45222;52.458;20.914;2022-07-10T13:50:25;3.90;;;1.20;;
59416;SDS011;45222;52.458;20.914;2022-07-10T13:53:27;3.10;;;1.10;;
59416;SDS011;45222;52.458;20.914;2022-07-10T13:56:29;4.70;;;1.30;;
59416;SDS011;45222;52.458;20.914;2022-07-10T13:59:31;3.30;;;1.20;;
59416;SDS011;45222;52.458;20.914;2022-07-10T14:02:33;4.50;;;1.30;;
59416;SDS011;45222;52.458;20.914;2022-07-10T14:05:37;5.40;;;1.30;;
59416;SDS011;45222;52.458;20.914;2022-07-10T14:08:39;4.70;;;1.20;;
59416;SDS011;45222;52.458;20.914;2022-07-10T14:11:41;3.10;;;1.10;;
59416;SDS011;45222;52.458;20.914;2022-07-10T14:14:45;9.20;;;1.10;;
59416;SDS011;45222;52.458;20.914;2022-07-10T14:17:47;1.70;;;0.90;;
59416;SDS011;45222;52.458;20.914;2022-07-10T14:20:53;1.80;;;1.00;;
59416;SDS011;45222;52.458;20.914;2022-07-10T14:24:04;3.20;;;1.00;;
59416;SDS011;45222;52.458;20.914;2022-07-10T14:27:07;3.80;;;1.10;;
59416;SDS011;45222;52.458;20.914;2022-07-10T14:30:11;4.00;;;1.00;;
59416;SDS011;45222;52.458;20.914;2022-07-10T14:33:18;3.30;;;1.00;;
59416;SDS011;45222;52.458;20.914;2022-07-10T14:36:28;2.20;;;0.90;;
59416;SDS011;45222;52.458;20.914;2022-07-10T14:39:37;2.90;;;0.90;;
59416;SDS011;45222;52.458;20.914;2022-07-10T14:42:42;1.80;;;0.90;;
59416;SDS011;45222;52.458;20.914;2022-07-10T14:45:43;2.50;;;0.80;;
59416;SDS011;45222;52.458;20.914;2022-07-10T14:48:46;3.00;;;0.90;;
59416;SDS011;45222;52.458;20.914;2022-07-10T14:51:47;3.50;;;0.90;;
59416;SDS011;45222;52.458;20.914;2022-07-10T14:54:50;3.10;;;1.10;;
59416;SDS011;45222;52.458;20.914;2022-07-10T14:57:53;1.70;;;0.90;;
59416;SDS011;45222;52.458;20.914;2022-07-10T15:00:55;2.00;;;0.60;;
59416;SDS011;45222;52.458;20.914;2022-07-10T15:03:57;1.10;;;0.80;;
59416;SDS011;45222;52.458;20.914;2022-07-10T15:07:00;2.50;;;0.70;;
59416;SDS011;45222;52.458;20.914;2022-07-10T15:10:02;1.00;;;0.60;;
59416;SDS011;45222;52.458;20.914;2022-07-10T15:16:07;1.30;;;0.70;;
59416;SDS011;45222;52.458;20.914;2022-07-10T15:22:12;2.80;;;0.70;;
59416;SDS011;45222;52.458;20.914;2022-07-10T15:25:14;2.80;;;0.70;;
59416;SDS011;45222;52.458;20.914;2022-07-10T15:28:16;0.60;;;0.60;;
59416;SDS011;45222;52.458;20.914;2022-07-10T15:31:18;1.40;;;0.60;;
59416;SDS011;45222;52.458;20.914;2022-07-10T15:34:21;0.70;;;0.60;;
59416;SDS011;45222;52.458;20.914;2022-07-10T15:37:22;0.60;;;0.50;;
59416;SDS011;45222;52.458;20.914;2022-07-10T15:40:24;2.30;;;0.70;;
59416;SDS011;45222;52.458;20.914;2022-07-10T15:43:26;0.90;;;0.60;;
59416;SDS011;45222;52.458;20.914;2022-07-10T15:46:30;2.50;;;0.60;;
59416;SDS011;45222;52.458;20.914;2022-07-10T15:49:32;1.90;;;0.60;;
59416;SDS011;45222;52.458;20.914;2022-07-10T15:52:34;1.60;;;0.70;;
59416;SDS011;45222;52.458;20.914;2022-07-10T15:55:35;0.60;;;0.50;;
59416;SDS011;45222;52.458;20.914;2022-07-10T15:58:37;1.70;;;0.50;;
59416;SDS011;45222;52.458;20.914;2022-07-10T16:01:39;0.90;;;0.60;;
59416;SDS011;45222;52.458;20.914;2022-07-10T16:04:41;1.10;;;0.60;;
59416;SDS011;45222;52.458;20.914;2022-07-10T16:07:43;0.80;;;0.60;;
59416;SDS011;45222;52.458;20.914;2022-07-10T16:10:44;1.10;;;0.60;;
59416;SDS011;45222;52.458;20.914;2022-07-10T16:13:46;1.10;;;0.60;;
59416;SDS011;45222;52.458;20.914;2022-07-10T16:16:48;2.40;;;0.80;;
59416;SDS011;45222;52.458;20.914;2022-07-10T16:19:51;1.20;;;0.60;;
59416;SDS011;45222;52.458;20.914;2022-07-10T16:22:53;5.60;;;1.90;;
59416;SDS011;45222;52.458;20.914;2022-07-10T16:25:55;1.40;;;0.80;;
59416;SDS011;45222;52.458;20.914;2022-07-10T16:29:02;2.80;;;0.80;;
59416;SDS011;45222;52.458;20.914;2022-07-10T16:32:04;3.20;;;0.70;;
59416;SDS011;45222;52.458;20.914;2022-07-10T16:35:07;1.20;;;0.70;;
59416;SDS011;45222;52.458;20.914;2022-07-10T16:38:09;1.10;;;0.60;;
59416;SDS011;45222;52.458;20.914;2022-07-10T16:41:11;2.80;;;0.70;;
59416;SDS011;45222;52.458;20.914;2022-07-10T16:44:13;0.80;;;0.60;;
59416;SDS011;45222;52.458;20.914;2022-07-10T16:47:15;1.80;;;0.70;;
59416;SDS011;45222;52.458;20.914;2022-07-10T16:50:17;2.20;;;0.50;;
59416;SDS011;45222;52.458;20.914;2022-07-10T16:53:19;2.80;;;0.70;;
59416;SDS011;45222;52.458;20.914;2022-07-10T16:56:24;9.80;;;0.90;;
59416;SDS011;45222;52.458;20.914;2022-07-10T16:59:25;0.70;;;0.70;;
59416;SDS011;45222;52.458;20.914;2022-07-10T17:02:27;2.20;;;0.80;;
59416;SDS011;45222;52.458;20.914;2022-07-10T17:05:29;1.70;;;0.80;;
59416;SDS011;45222;52.458;20.914;2022-07-10T17:08:31;2.00;;;0.70;;
59416;SDS011;45222;52.458;20.914;2022-07-10T17:11:33;1.50;;;0.80;;
59416;SDS011;45222;52.458;20.914;2022-07-10T17:14:34;1.50;;;0.70;;
59416;SDS011;45222;52.458;20.914;2022-07-10T17:17:37;3.10;;;0.90;;
59416;SDS011;45222;52.458;20.914;2022-07-10T17:20:39;1.90;;;0.80;;
59416;SDS011;45222;52.458;20.914;2022-07-10T17:23:41;2.90;;;0.70;;
59416;SDS011;45222;52.458;20.914;2022-07-10T17:26:43;1.40;;;0.70;;
59416;SDS011;45222;52.458;20.914;2022-07-10T17:29:44;1.40;;;0.70;;
59416;SDS011;45222;52.458;20.914;2022-07-10T17:32:47;2.80;;;0.70;;
59416;SDS011;45222;52.458;20.914;2022-07-10T17:35:49;2.60;;;0.70;;
59416;SDS011;45222;52.458;20.914;2022-07-10T17:38:51;1.00;;;0.70;;
59416;SDS011;45222;52.458;20.914;2022-07-10T17:41:52;1.70;;;0.80;;
59416;SDS011;45222;52.458;20.914;2022-07-10T17:44:54;1.70;;;0.70;;
59416;SDS011;45222;52.458;20.914;2022-07-10T17:47:56;2.00;;;1.00;;
59416;SDS011;45222;52.458;20.914;2022-07-10T17:50:58;2.20;;;1.10;;
59416;SDS011;45222;52.458;20.914;2022-07-10T17:54:00;2.90;;;0.90;;
59416;SDS011;45222;52.458;20.914;2022-07-10T17:57:02;3.20;;;0.90;;
59416;SDS011;45222;52.458;20.914;2022-07-10T18:00:05;1.60;;;0.90;;
59416;SDS011;45222;52.458;20.914;2022-07-10T18:03:07;1.60;;;0.90;;
59416;SDS011;45222;52.458;20.914;2022-07-10T18:06:09;1.30;;;0.80;;
59416;SDS011;45222;52.458;20.914;2022-07-10T18:09:11;2.50;;;0.80;;
59416;SDS011;45222;52.458;20.914;2022-07-10T18:12:13;2.80;;;1.00;;
59416;SDS011;45222;52.458;20.914;2022-07-10T18:15:15;2.40;;;0.70;;
59416;SDS011;45222;52.458;20.914;2022-07-10T18:18:17;2.70;;;0.90;;
59416;SDS011;45222;52.458;20.914;2022-07-10T18:21:19;2.70;;;0.80;;
59416;SDS011;45222;52.458;20.914;2022-07-10T18:24:21;2.20;;;0.90;;
59416;SDS011;45222;52.458;20.914;2022-07-10T18:27:23;3.20;;;1.20;;